createdAt,value
2022-07-29T00:00:28.373Z,74.50
2022-07-29T00:04:10.552Z,74.50
2022-07-29T00:07:52.581Z,74.30
2022-07-29T00:11:34.759Z,73.90
2022-07-29T00:15:16.781Z,76.00
2022-07-29T00:19:02.131Z,76.70
2022-07-29T00:22:44.573Z,76.50
2022-07-29T00:26:28.984Z,76.80
2022-07-29T00:30:11.147Z,76.90
2022-07-29T00:33:53.384Z,78.10
2022-07-29T00:37:35.364Z,78.70
2022-07-29T00:41:18.147Z,79.10
2022-07-29T00:45:00.030Z,79.60
2022-07-29T00:48:42.022Z,80.10
2022-07-29T00:52:24.002Z,80.60
2022-07-29T00:56:06.042Z,79.50
2022-07-29T00:59:47.957Z,79.20
2022-07-29T01:03:29.925Z,81.50
2022-07-29T01:07:12.212Z,82.20
2022-07-29T01:10:55.603Z,83.10
2022-07-29T01:14:39.390Z,83.70
2022-07-29T01:18:35.157Z,84.30
2022-07-29T01:22:27.870Z,83.60
2022-07-29T01:26:21.928Z,84.10
2022-07-29T01:30:05.280Z,85.40
2022-07-29T01:33:54.138Z,84.50
2022-07-29T01:37:48.061Z,84.60
2022-07-29T01:41:35.367Z,84.70
2022-07-29T01:45:25.909Z,87.10
2022-07-29T01:49:12.194Z,87.10
2022-07-29T01:52:58.283Z,87.60
2022-07-29T01:56:41.641Z,89.00
2022-07-29T02:00:24.843Z,89.90
2022-07-29T02:04:08.777Z,90.00
2022-07-29T02:07:53.815Z,88.90
2022-07-29T02:11:38.013Z,89.00
2022-07-29T02:15:20.743Z,89.90
2022-07-29T02:19:03.996Z,90.10
2022-07-29T02:22:47.405Z,90.10
2022-07-29T02:26:31.705Z,90.20
2022-07-29T02:30:14.342Z,90.90
2022-07-29T02:33:57.268Z,91.10
2022-07-29T02:37:40.374Z,90.60
2022-07-29T02:41:27.770Z,91.30
2022-07-29T02:45:12.857Z,91.10
2022-07-29T02:49:16.948Z,90.70
2022-07-29T02:53:04.335Z,90.90
2022-07-29T02:56:47.561Z,90.80
2022-07-29T03:00:31.279Z,91.00
2022-07-29T03:04:15.814Z,91.10
2022-07-29T03:08:07.661Z,91.30
2022-07-29T03:11:51.133Z,90.90
2022-07-29T03:15:33.802Z,90.90
2022-07-29T03:19:16.101Z,91.10
2022-07-29T03:22:57.983Z,91.30
2022-07-29T03:26:39.961Z,91.30
2022-07-29T03:30:22.524Z,91.10
2022-07-29T03:34:04.608Z,91.70
2022-07-29T03:37:47.617Z,91.60
2022-07-29T03:41:31.463Z,91.80
2022-07-29T03:45:18.598Z,91.20
2022-07-29T03:49:04.206Z,91.60
2022-07-29T03:52:47.733Z,91.40
2022-07-29T03:56:30.692Z,91.60
2022-07-29T04:00:13.617Z,92.40
2022-07-29T04:03:56.016Z,92.40
2022-07-29T04:07:37.980Z,92.40
2022-07-29T04:11:20.369Z,92.70
2022-07-29T04:15:04.397Z,92.90
2022-07-29T04:18:46.323Z,92.90
2022-07-29T04:22:28.265Z,92.90
2022-07-29T04:26:11.880Z,93.10
2022-07-29T04:29:56.603Z,93.10
2022-07-29T04:33:39.569Z,92.80
2022-07-29T04:37:21.467Z,92.90
2022-07-29T04:41:03.411Z,92.80
2022-07-29T04:44:45.497Z,92.80
2022-07-29T04:48:28.923Z,92.20
2022-07-29T04:52:10.989Z,93.20
2022-07-29T04:55:52.983Z,93.20
2022-07-29T04:59:35.226Z,93.10
2022-07-29T05:03:17.236Z,92.50
2022-07-29T05:06:59.148Z,92.40
2022-07-29T05:10:41.144Z,92.80
2022-07-29T05:14:23.056Z,92.10
2022-07-29T05:18:05.417Z,92.50
2022-07-29T05:21:47.297Z,92.30
2022-07-29T05:25:43.090Z,92.10
2022-07-29T05:29:42.512Z,91.80
2022-07-29T05:33:35.044Z,92.30
2022-07-29T05:37:21.166Z,92.80
2022-07-29T05:41:03.525Z,92.80
2022-07-29T05:44:45.406Z,92.10
2022-07-29T05:48:27.570Z,91.40
2022-07-29T05:52:10.142Z,91.80
2022-07-29T05:55:52.959Z,91.50
2022-07-29T05:59:38.974Z,91.40
2022-07-29T06:03:21.473Z,91.20
2022-07-29T06:07:04.121Z,91.20
2022-07-29T06:10:46.726Z,91.00
2022-07-29T06:14:36.424Z,90.40
2022-07-29T06:18:19.255Z,88.70
2022-07-29T06:22:01.688Z,87.60
2022-07-29T06:25:51.998Z,86.00
2022-07-29T06:29:34.611Z,84.80
2022-07-29T06:33:20.544Z,82.60
2022-07-29T06:37:11.267Z,81.40
2022-07-29T06:41:01.046Z,79.60
2022-07-29T06:48:42.008Z,75.20
2022-07-29T06:52:25.780Z,73.00
2022-07-29T06:56:17.037Z,70.60
2022-07-29T06:59:59.618Z,68.50
2022-07-29T07:03:43.016Z,65.50
2022-07-29T07:11:28.712Z,62.00
2022-07-29T07:15:39.462Z,59.40
2022-07-29T07:19:22.654Z,60.00
2022-07-29T07:23:37.510Z,56.40
2022-07-29T07:27:19.640Z,60.10
2022-07-29T07:31:13.626Z,53.80
2022-07-29T07:34:56.202Z,54.50
2022-07-29T07:38:38.495Z,51.00
2022-07-29T07:42:28.354Z,50.40
2022-07-29T07:46:10.999Z,50.80
2022-07-29T07:49:54.471Z,47.20
2022-07-29T07:53:42.766Z,46.30
2022-07-29T07:57:25.843Z,46.70
2022-07-29T08:01:09.061Z,43.40
2022-07-29T08:04:58.824Z,41.80
2022-07-29T08:08:41.179Z,40.60
2022-07-29T08:12:23.703Z,38.80
2022-07-29T08:16:16.711Z,38.10
2022-07-29T08:19:59.951Z,40.10
2022-07-29T08:24:08.889Z,36.20
2022-07-29T08:27:51.328Z,35.60
2022-07-29T08:31:33.533Z,34.50
2022-07-29T08:35:25.178Z,34.20
2022-07-29T08:39:07.315Z,35.90
2022-07-29T08:42:50.109Z,33.00
2022-07-29T08:46:40.481Z,31.40
2022-07-29T08:50:23.256Z,33.10
2022-07-29T08:54:05.326Z,30.50
2022-07-29T08:57:57.290Z,30.00
2022-07-29T09:02:30.520Z,31.80
2022-07-29T09:06:16.118Z,33.80
2022-07-29T09:14:00.683Z,31.60
2022-07-29T09:17:47.187Z,28.40
2022-07-29T09:21:36.050Z,28.10
2022-07-29T09:25:35.686Z,28.70
2022-07-29T09:29:39.261Z,30.90
2022-07-29T09:33:25.375Z,30.80
2022-07-29T09:37:30.360Z,29.70
2022-07-29T09:41:12.677Z,31.90
2022-07-29T09:44:55.151Z,29.10
2022-07-29T09:48:45.562Z,28.10
2022-07-29T09:52:30.509Z,28.40
2022-07-29T10:00:19.064Z,27.90
2022-07-29T10:04:01.764Z,29.10
2022-07-29T10:08:25.732Z,27.90
2022-07-29T10:12:25.489Z,30.80
2022-07-29T10:16:08.020Z,29.00
2022-07-29T10:19:50.977Z,26.10
2022-07-29T10:23:46.928Z,26.40
2022-07-29T10:27:29.764Z,27.70
2022-07-29T10:31:41.400Z,26.90
2022-07-29T10:36:06.100Z,28.40
2022-07-29T10:40:54.994Z,29.20
2022-07-29T10:45:25.895Z,28.90
2022-07-29T10:49:35.699Z,27.70
2022-07-29T10:53:18.028Z,26.50
2022-07-29T11:01:37.774Z,28.10
2022-07-29T11:05:59.704Z,28.50
2022-07-29T11:10:15.195Z,29.00
2022-07-29T11:14:41.898Z,30.00
2022-07-29T11:18:24.566Z,29.90
2022-07-29T11:22:47.396Z,30.70
2022-07-29T11:26:45.843Z,32.50
2022-07-29T11:31:15.253Z,32.30
2022-07-29T11:35:45.920Z,32.70
2022-07-29T11:45:55.845Z,33.10
2022-07-29T11:50:26.943Z,33.90
2022-07-29T11:54:27.863Z,33.90
2022-07-29T11:58:18.681Z,33.80
2022-07-29T12:02:37.066Z,33.90
2022-07-29T12:06:18.094Z,34.50
2022-07-29T12:10:41.813Z,34.90
2022-07-29T12:14:35.032Z,34.70
2022-07-29T12:18:34.946Z,35.00
2022-07-29T12:22:29.036Z,35.10
2022-07-29T12:26:28.185Z,35.30
2022-07-29T12:30:20.547Z,35.80
2022-07-29T12:34:24.682Z,36.10
2022-07-29T12:38:16.489Z,36.80
2022-07-29T12:42:14.998Z,37.10
2022-07-29T12:46:16.094Z,36.60
2022-07-29T12:50:11.914Z,37.10
2022-07-29T12:59:09.151Z,37.40
2022-07-29T13:03:08.084Z,37.70
2022-07-29T13:07:04.525Z,38.30
2022-07-29T13:10:54.223Z,38.20
2022-07-29T13:14:57.262Z,37.80
2022-07-29T13:18:48.439Z,38.10
2022-07-29T13:22:51.198Z,37.90
2022-07-29T13:26:42.280Z,37.40
2022-07-29T13:30:44.941Z,37.20
2022-07-29T13:34:34.534Z,37.90
2022-07-29T13:38:33.956Z,37.80
2022-07-29T13:42:27.737Z,38.70
2022-07-29T13:46:26.951Z,38.70
2022-07-29T13:50:20.584Z,38.20
2022-07-29T13:54:20.168Z,38.40
2022-07-29T14:04:27.964Z,38.80
2022-07-29T14:08:20.882Z,38.30
2022-07-29T14:12:22.775Z,38.80
2022-07-29T14:16:14.840Z,39.90
2022-07-29T14:20:13.644Z,39.80
2022-07-29T14:24:44.168Z,39.10
2022-07-29T14:28:41.694Z,39.30
2022-07-29T14:33:43.277Z,39.60
2022-07-29T14:37:40.705Z,39.00
2022-07-29T14:41:37.601Z,39.50
2022-07-29T14:46:08.995Z,40.30
2022-07-29T14:55:16.637Z,39.10
2022-07-29T14:59:39.202Z,40.50
2022-07-29T15:04:08.502Z,39.90
2022-07-29T15:08:43.507Z,40.00
2022-07-29T15:12:34.825Z,39.40
2022-07-29T15:21:07.965Z,39.30
2022-07-29T15:24:56.990Z,39.00
2022-07-29T15:28:59.915Z,38.20
2022-07-29T15:33:30.563Z,38.90
2022-07-29T15:37:19.438Z,38.20
2022-07-29T15:41:24.563Z,37.60
2022-07-29T15:45:14.941Z,38.50
2022-07-29T15:49:18.419Z,37.60
2022-07-29T15:53:07.986Z,37.50
2022-07-29T15:57:10.736Z,37.30
2022-07-29T16:01:01.378Z,38.30
2022-07-29T16:09:33.819Z,39.90
2022-07-29T16:13:25.040Z,39.80
2022-07-29T16:17:26.151Z,40.40
2022-07-29T16:21:17.703Z,40.90
2022-07-29T16:25:20.913Z,42.10
2022-07-29T16:29:09.310Z,42.40
2022-07-29T16:33:12.325Z,43.20
2022-07-29T16:37:05.146Z,42.60
2022-07-29T16:41:07.460Z,44.00
2022-07-29T16:44:57.157Z,43.10
2022-07-29T16:49:00.087Z,43.00
2022-07-29T16:52:50.169Z,43.00
2022-07-29T16:56:53.002Z,43.00
2022-07-29T17:00:43.453Z,42.90
2022-07-29T17:04:46.818Z,42.90
2022-07-29T17:08:36.207Z,42.60
2022-07-29T17:12:40.619Z,42.90
2022-07-29T17:16:30.225Z,42.90
2022-07-29T17:20:29.711Z,43.50
2022-07-29T17:24:23.077Z,44.10
2022-07-29T17:28:26.884Z,44.30
2022-07-29T17:32:54.975Z,44.20
2022-07-29T17:36:44.224Z,44.60
2022-07-29T17:40:47.260Z,45.30
2022-07-29T17:44:37.473Z,44.90
2022-07-29T17:48:41.442Z,45.20
2022-07-29T17:52:31.497Z,45.40
2022-07-29T17:56:34.033Z,46.10
2022-07-29T18:00:25.185Z,45.60
2022-07-29T18:04:28.730Z,46.40
2022-07-29T18:08:18.870Z,46.30
2022-07-29T18:12:22.394Z,46.90
2022-07-29T18:16:10.983Z,46.30
2022-07-29T18:20:14.364Z,47.40
2022-07-29T18:24:04.206Z,47.00
2022-07-29T18:28:06.993Z,47.90
2022-07-29T18:31:58.930Z,47.90
2022-07-29T18:36:10.065Z,48.10
2022-07-29T18:40:29.939Z,47.80
2022-07-29T18:44:21.858Z,47.60
2022-07-29T18:53:20.215Z,48.40
2022-07-29T18:57:55.392Z,48.40
2022-07-29T19:01:54.455Z,48.80
2022-07-29T19:05:44.996Z,48.50
2022-07-29T19:09:49.551Z,49.20
2022-07-29T19:14:45.396Z,49.20
2022-07-29T19:18:48.318Z,49.00
2022-07-29T19:22:38.153Z,49.00
2022-07-29T19:31:11.387Z,49.70
2022-07-29T19:40:12.439Z,51.20
2022-07-29T19:44:02.214Z,49.80
2022-07-29T19:56:42.192Z,51.80
2022-07-29T20:00:29.007Z,55.60
2022-07-29T20:04:31.466Z,55.60
2022-07-29T20:08:14.163Z,56.20
2022-07-29T20:11:56.111Z,56.30
2022-07-29T20:15:38.133Z,56.80
2022-07-29T20:19:20.123Z,57.20
2022-07-29T20:23:03.001Z,57.90
2022-07-29T20:26:44.966Z,58.40
2022-07-29T20:30:27.058Z,58.90
2022-07-29T20:34:10.158Z,59.30
2022-07-29T20:37:56.175Z,59.70
2022-07-29T20:41:39.209Z,60.40
2022-07-29T20:45:21.363Z,60.90
2022-07-29T20:49:03.506Z,61.10
2022-07-29T20:52:45.802Z,62.10
2022-07-29T20:56:27.830Z,62.30
2022-07-29T21:00:10.484Z,63.10
2022-07-29T21:03:52.424Z,63.70
2022-07-29T21:07:34.590Z,65.30
2022-07-29T21:11:16.513Z,65.70
2022-07-29T21:14:58.430Z,66.50
2022-07-29T21:18:41.374Z,66.10
2022-07-29T21:22:23.307Z,67.00
2022-07-29T21:26:09.822Z,67.30
2022-07-29T21:29:54.479Z,67.50
2022-07-29T21:33:37.334Z,67.80
2022-07-29T21:37:19.323Z,67.50
2022-07-29T21:41:02.011Z,68.20
2022-07-29T21:44:44.109Z,67.80
2022-07-29T21:48:28.052Z,68.30
2022-07-29T21:52:09.992Z,69.30
2022-07-29T21:55:55.999Z,68.50
2022-07-29T21:59:38.179Z,69.40
2022-07-29T22:03:20.100Z,70.10
2022-07-29T22:07:02.631Z,70.50
2022-07-29T22:10:44.933Z,70.90
2022-07-29T22:14:27.140Z,71.10
2022-07-29T22:18:09.042Z,71.80
2022-07-29T22:21:50.947Z,72.50
2022-07-29T22:25:34.038Z,72.90
2022-07-29T22:29:17.821Z,73.50
2022-07-29T22:32:59.715Z,73.60
2022-07-29T22:36:41.653Z,73.70
2022-07-29T22:40:30.810Z,73.40
2022-07-29T22:44:14.934Z,74.70
2022-07-29T22:47:59.483Z,74.60
2022-07-29T22:51:41.503Z,74.00
2022-07-29T22:55:23.421Z,75.10
2022-07-29T22:59:05.331Z,75.50
2022-07-29T23:02:47.625Z,75.40
2022-07-29T23:06:29.759Z,77.10
2022-07-29T23:10:12.133Z,77.30
2022-07-29T23:13:54.037Z,77.10
2022-07-29T23:17:36.707Z,78.10
2022-07-29T23:21:21.051Z,78.50
2022-07-29T23:25:03.010Z,78.90
2022-07-29T23:28:45.933Z,79.50
2022-07-29T23:32:27.872Z,79.60
2022-07-29T23:36:09.807Z,80.80
2022-07-29T23:39:51.683Z,81.60
2022-07-29T23:43:33.852Z,81.60
2022-07-29T23:47:15.722Z,82.50
2022-07-29T23:50:58.393Z,82.80
2022-07-29T23:54:40.257Z,83.40
2022-07-29T23:58:22.191Z,84.20
